sensor_id;sensor_type;location;lat;lon;timestamp;pressure;altitude;pressure_sealevel;temperature;humidity
15674;BME280;7937;48.090;16.212;2022-11-15T00:02:17;97917.53;;;3.33;100.00
15674;BME280;7937;48.090;16.212;2022-11-15T00:05:38;97905.88;;;3.40;100.00
15674;BME280;7937;48.090;16.212;2022-11-15T00:08:59;97901.28;;;3.45;100.00
15674;BME280;7937;48.090;16.212;2022-11-15T00:12:20;97896.78;;;3.49;100.00
15674;BME280;7937;48.090;16.212;2022-11-15T00:15:41;97894.69;;;3.55;100.00
15674;BME280;7937;48.090;16.212;2022-11-15T00:19:02;97888.56;;;3.56;100.00
15674;BME280;7937;48.090;16.212;2022-11-15T00:22:23;97898.09;;;3.57;100.00
15674;BME280;7937;48.090;16.212;2022-11-15T00:25:44;97891.84;;;3.60;100.00
15674;BME280;7937;48.090;16.212;2022-11-15T00:29:04;97892.50;;;3.65;100.00
15674;BME280;7937;48.090;16.212;2022-11-15T00:32:26;97883.69;;;3.67;100.00
15674;BME280;7937;48.090;16.212;2022-11-15T00:35:46;97884.53;;;3.68;100.00
15674;BME280;7937;48.090;16.212;2022-11-15T00:39:07;97882.66;;;3.70;100.00
15674;BME280;7937;48.090;16.212;2022-11-15T00:42:28;97863.41;;;3.72;100.00
15674;BME280;7937;48.090;16.212;2022-11-15T00:45:48;97879.91;;;3.73;100.00
15674;BME280;7937;48.090;16.212;2022-11-15T00:49:08;97868.41;;;3.77;100.00
15674;BME280;7937;48.090;16.212;2022-11-15T00:52:29;97865.78;;;3.77;100.00
15674;BME280;7937;48.090;16.212;2022-11-15T00:55:53;97862.94;;;3.82;100.00
15674;BME280;7937;48.090;16.212;2022-11-15T00:59:15;97864.41;;;3.87;100.00
15674;BME280;7937;48.090;16.212;2022-11-15T01:02:36;97861.63;;;3.90;100.00
15674;BME280;7937;48.090;16.212;2022-11-15T01:05:59;97856.19;;;3.95;100.00
15674;BME280;7937;48.090;16.212;2022-11-15T01:09:19;97858.31;;;4.04;100.00
15674;BME280;7937;48.090;16.212;2022-11-15T01:12:40;97851.63;;;4.16;100.00
15674;BME280;7937;48.090;16.212;2022-11-15T01:16:13;97855.53;;;4.24;100.00
15674;BME280;7937;48.090;16.212;2022-11-15T01:19:33;97852.34;;;4.35;100.00
15674;BME280;7937;48.090;16.212;2022-11-15T01:22:54;97845.72;;;4.45;100.00
15674;BME280;7937;48.090;16.212;2022-11-15T01:26:15;97850.59;;;4.51;100.00
15674;BME280;7937;48.090;16.212;2022-11-15T01:29:36;97837.47;;;4.53;100.00
15674;BME280;7937;48.090;16.212;2022-11-15T01:32:56;97847.59;;;4.59;100.00
15674;BME280;7937;48.090;16.212;2022-11-15T01:36:19;97843.19;;;4.59;100.00
15674;BME280;7937;48.090;16.212;2022-11-15T01:39:42;97845.66;;;4.62;100.00
15674;BME280;7937;48.090;16.212;2022-11-15T01:46:44;97837.66;;;4.65;100.00
15674;BME280;7937;48.090;16.212;2022-11-15T01:50:10;97833.19;;;4.67;100.00
15674;BME280;7937;48.090;16.212;2022-11-15T01:53:33;97833.94;;;4.69;100.00
15674;BME280;7937;48.090;16.212;2022-11-15T01:57:01;97830.38;;;4.70;100.00
15674;BME280;7937;48.090;16.212;2022-11-15T02:00:22;97833.75;;;4.72;100.00
15674;BME280;7937;48.090;16.212;2022-11-15T02:03:55;97827.47;;;4.76;100.00
15674;BME280;7937;48.090;16.212;2022-11-15T02:07:19;97834.38;;;4.77;100.00
15674;BME280;7937;48.090;16.212;2022-11-15T02:10:40;97837.72;;;4.79;100.00
15674;BME280;7937;48.090;16.212;2022-11-15T02:14:01;97833.34;;;4.80;100.00
15674;BME280;7937;48.090;16.212;2022-11-15T02:17:36;97826.25;;;4.82;100.00
15674;BME280;7937;48.090;16.212;2022-11-15T02:32:12;97820.13;;;4.83;100.00
15674;BME280;7937;48.090;16.212;2022-11-15T02:35:47;97833.94;;;4.85;100.00
15674;BME280;7937;48.090;16.212;2022-11-15T02:39:48;97837.34;;;4.87;100.00
15674;BME280;7937;48.090;16.212;2022-11-15T02:43:12;97838.19;;;4.88;100.00
15674;BME280;7937;48.090;16.212;2022-11-15T02:46:57;97840.78;;;4.88;100.00
15674;BME280;7937;48.090;16.212;2022-11-15T02:50:34;97828.56;;;4.88;100.00
15674;BME280;7937;48.090;16.212;2022-11-15T02:53:55;97823.22;;;4.90;100.00
15674;BME280;7937;48.090;16.212;2022-11-15T02:57:18;97829.41;;;4.89;100.00
15674;BME280;7937;48.090;16.212;2022-11-15T03:00:48;97827.53;;;4.91;100.00
15674;BME280;7937;48.090;16.212;2022-11-15T03:04:30;97818.75;;;4.92;100.00
15674;BME280;7937;48.090;16.212;2022-11-15T03:08:31;97811.69;;;4.94;100.00
15674;BME280;7937;48.090;16.212;2022-11-15T03:11:59;97809.13;;;4.92;100.00
15674;BME280;7937;48.090;16.212;2022-11-15T03:15:27;97810.06;;;4.91;100.00
15674;BME280;7937;48.090;16.212;2022-11-15T03:18:54;97804.00;;;4.91;100.00
15674;BME280;7937;48.090;16.212;2022-11-15T03:22:20;97805.75;;;4.90;100.00
15674;BME280;7937;48.090;16.212;2022-11-15T03:25:46;97808.28;;;4.92;100.00
15674;BME280;7937;48.090;16.212;2022-11-15T03:29:15;97792.59;;;4.92;100.00
15674;BME280;7937;48.090;16.212;2022-11-15T03:32:42;97787.28;;;4.93;100.00
15674;BME280;7937;48.090;16.212;2022-11-15T03:36:05;97788.97;;;4.94;100.00
15674;BME280;7937;48.090;16.212;2022-11-15T03:39:27;97782.81;;;4.95;100.00
15674;BME280;7937;48.090;16.212;2022-11-15T03:46:27;97789.56;;;4.99;100.00
15674;BME280;7937;48.090;16.212;2022-11-15T03:50:07;97786.00;;;5.00;100.00
15674;BME280;7937;48.090;16.212;2022-11-15T03:53:29;97787.69;;;5.01;100.00
15674;BME280;7937;48.090;16.212;2022-11-15T03:56:51;97776.41;;;5.01;100.00
15674;BME280;7937;48.090;16.212;2022-11-15T04:00:12;97767.69;;;5.00;100.00
15674;BME280;7937;48.090;16.212;2022-11-15T04:03:33;97761.63;;;5.00;100.00
15674;BME280;7937;48.090;16.212;2022-11-15T04:06:54;97765.09;;;5.00;100.00
15674;BME280;7937;48.090;16.212;2022-11-15T04:10:15;97761.75;;;4.98;100.00
15674;BME280;7937;48.090;16.212;2022-11-15T04:13:35;97761.53;;;5.01;100.00
15674;BME280;7937;48.090;16.212;2022-11-15T04:16:56;97766.88;;;5.00;100.00
15674;BME280;7937;48.090;16.212;2022-11-15T04:20:17;97754.63;;;5.00;100.00
15674;BME280;7937;48.090;16.212;2022-11-15T04:23:57;97765.00;;;5.02;100.00
15674;BME280;7937;48.090;16.212;2022-11-15T04:27:32;97760.63;;;5.02;100.00
15674;BME280;7937;48.090;16.212;2022-11-15T04:30:53;97759.69;;;5.03;100.00
15674;BME280;7937;48.090;16.212;2022-11-15T04:34:13;97755.31;;;5.04;100.00
15674;BME280;7937;48.090;16.212;2022-11-15T04:37:33;97752.59;;;5.05;100.00
15674;BME280;7937;48.090;16.212;2022-11-15T04:40:54;97744.69;;;5.07;100.00
15674;BME280;7937;48.090;16.212;2022-11-15T04:44:14;97743.63;;;5.09;100.00
15674;BME280;7937;48.090;16.212;2022-11-15T04:47:35;97732.38;;;5.09;100.00
15674;BME280;7937;48.090;16.212;2022-11-15T04:50:56;97727.13;;;5.09;100.00
15674;BME280;7937;48.090;16.212;2022-11-15T04:54:17;97728.78;;;5.10;100.00
15674;BME280;7937;48.090;16.212;2022-11-15T04:57:37;97728.78;;;5.10;100.00
15674;BME280;7937;48.090;16.212;2022-11-15T05:01:06;97735.72;;;5.11;100.00
15674;BME280;7937;48.090;16.212;2022-11-15T05:04:28;97734.88;;;5.10;100.00
15674;BME280;7937;48.090;16.212;2022-11-15T05:07:49;97734.97;;;5.09;100.00
15674;BME280;7937;48.090;16.212;2022-11-15T05:11:10;97728.78;;;5.10;100.00
15674;BME280;7937;48.090;16.212;2022-11-15T05:14:30;97730.47;;;5.11;100.00
15674;BME280;7937;48.090;16.212;2022-11-15T05:17:51;97725.09;;;5.14;100.00
15674;BME280;7937;48.090;16.212;2022-11-15T05:21:13;97722.53;;;5.12;100.00
15674;BME280;7937;48.090;16.212;2022-11-15T05:24:34;97727.78;;;5.12;100.00
15674;BME280;7937;48.090;16.212;2022-11-15T05:27:55;97717.22;;;5.14;100.00
15674;BME280;7937;48.090;16.212;2022-11-15T05:31:16;97718.06;;;5.14;100.00
15674;BME280;7937;48.090;16.212;2022-11-15T05:34:36;97718.84;;;5.16;100.00
15674;BME280;7937;48.090;16.212;2022-11-15T05:37:57;97708.38;;;5.16;100.00
15674;BME280;7937;48.090;16.212;2022-11-15T05:41:21;97706.69;;;5.15;100.00
15674;BME280;7937;48.090;16.212;2022-11-15T05:44:47;97695.47;;;5.13;100.00
15674;BME280;7937;48.090;16.212;2022-11-15T05:48:09;97703.31;;;5.13;100.00
15674;BME280;7937;48.090;16.212;2022-11-15T05:51:30;97705.84;;;5.15;100.00
15674;BME280;7937;48.090;16.212;2022-11-15T05:54:51;97716.22;;;5.16;100.00
15674;BME280;7937;48.090;16.212;2022-11-15T05:58:13;97710.16;;;5.16;100.00
15674;BME280;7937;48.090;16.212;2022-11-15T06:01:33;97711.75;;;5.18;100.00
15674;BME280;7937;48.090;16.212;2022-11-15T06:04:54;97708.28;;;5.18;100.00
15674;BME280;7937;48.090;16.212;2022-11-15T06:08:15;97710.06;;;5.17;100.00
15674;BME280;7937;48.090;16.212;2022-11-15T06:11:36;97718.63;;;5.19;100.00
15674;BME280;7937;48.090;16.212;2022-11-15T06:14:56;97711.75;;;5.18;100.00
15674;BME280;7937;48.090;16.212;2022-11-15T06:18:16;97719.47;;;5.20;100.00
15674;BME280;7937;48.090;16.212;2022-11-15T06:21:37;97719.59;;;5.18;100.00
15674;BME280;7937;48.090;16.212;2022-11-15T06:24:58;97715.94;;;5.21;100.00
15674;BME280;7937;48.090;16.212;2022-11-15T06:28:27;97720.31;;;5.20;100.00
15674;BME280;7937;48.090;16.212;2022-11-15T06:31:48;97716.78;;;5.22;100.00
15674;BME280;7937;48.090;16.212;2022-11-15T06:35:09;97722.84;;;5.22;100.00
15674;BME280;7937;48.090;16.212;2022-11-15T06:38:30;97719.31;;;5.23;100.00
15674;BME280;7937;48.090;16.212;2022-11-15T06:41:51;97723.63;;;5.24;100.00
15674;BME280;7937;48.090;16.212;2022-11-15T06:45:11;97724.38;;;5.26;100.00
15674;BME280;7937;48.090;16.212;2022-11-15T06:48:33;97714.00;;;5.25;100.00
15674;BME280;7937;48.090;16.212;2022-11-15T06:51:54;97718.22;;;5.27;100.00
15674;BME280;7937;48.090;16.212;2022-11-15T06:55:15;97718.00;;;5.30;100.00
15674;BME280;7937;48.090;16.212;2022-11-15T06:58:36;97719.63;;;5.33;100.00
15674;BME280;7937;48.090;16.212;2022-11-15T07:01:56;97724.69;;;5.36;100.00
15674;BME280;7937;48.090;16.212;2022-11-15T07:05:17;97721.06;;;5.38;100.00
15674;BME280;7937;48.090;16.212;2022-11-15T07:08:38;97718.16;;;5.43;100.00
15674;BME280;7937;48.090;16.212;2022-11-15T07:11:58;97712.75;;;5.46;100.00
15674;BME280;7937;48.090;16.212;2022-11-15T07:15:26;97719.66;;;5.47;100.00
15674;BME280;7937;48.090;16.212;2022-11-15T07:18:46;97712.75;;;5.46;100.00
15674;BME280;7937;48.090;16.212;2022-11-15T07:22:07;97712.66;;;5.47;100.00
15674;BME280;7937;48.090;16.212;2022-11-15T07:25:27;97706.28;;;5.51;100.00
15674;BME280;7937;48.090;16.212;2022-11-15T07:28:48;97713.22;;;5.52;100.00
15674;BME280;7937;48.090;16.212;2022-11-15T07:32:09;97709.56;;;5.55;100.00
15674;BME280;7937;48.090;16.212;2022-11-15T07:35:30;97699.78;;;5.59;100.00
15674;BME280;7937;48.090;16.212;2022-11-15T07:38:51;97696.00;;;5.63;100.00
15674;BME280;7937;48.090;16.212;2022-11-15T07:42:11;97692.56;;;5.62;100.00
15674;BME280;7937;48.090;16.212;2022-11-15T07:45:50;97688.06;;;5.64;100.00
15674;BME280;7937;48.090;16.212;2022-11-15T07:49:17;97689.47;;;5.70;100.00
15674;BME280;7937;48.090;16.212;2022-11-15T07:52:38;97698.00;;;5.73;100.00
15674;BME280;7937;48.090;16.212;2022-11-15T07:55:59;97696.13;;;5.75;100.00
15674;BME280;7937;48.090;16.212;2022-11-15T07:59:19;97695.19;;;5.76;100.00
15674;BME280;7937;48.090;16.212;2022-11-15T08:02:40;97690.88;;;5.75;100.00
15674;BME280;7937;48.090;16.212;2022-11-15T08:06:02;97687.44;;;5.75;100.00
15674;BME280;7937;48.090;16.212;2022-11-15T08:09:22;97689.66;;;5.81;100.00
15674;BME280;7937;48.090;16.212;2022-11-15T08:12:43;97691.44;;;5.80;100.00
15674;BME280;7937;48.090;16.212;2022-11-15T08:16:04;97684.63;;;5.78;100.00
15674;BME280;7937;48.090;16.212;2022-11-15T08:19:26;97694.91;;;5.81;100.00
15674;BME280;7937;48.090;16.212;2022-11-15T08:22:46;97696.41;;;5.85;100.00
15674;BME280;7937;48.090;16.212;2022-11-15T08:26:08;97677.06;;;5.87;100.00
15674;BME280;7937;48.090;16.212;2022-11-15T08:29:28;97676.16;;;5.88;100.00
15674;BME280;7937;48.090;16.212;2022-11-15T08:32:50;97677.94;;;5.88;100.00
15674;BME280;7937;48.090;16.212;2022-11-15T08:36:16;97676.22;;;5.87;100.00
15674;BME280;7937;48.090;16.212;2022-11-15T08:39:37;97683.16;;;5.88;100.00
15674;BME280;7937;48.090;16.212;2022-11-15T08:42:58;97680.69;;;5.85;100.00
15674;BME280;7937;48.090;16.212;2022-11-15T08:46:22;97684.91;;;5.87;100.00
15674;BME280;7937;48.090;16.212;2022-11-15T08:49:43;97680.34;;;5.91;100.00
15674;BME280;7937;48.090;16.212;2022-11-15T08:53:06;97684.56;;;5.93;100.00
15674;BME280;7937;48.090;16.212;2022-11-15T08:56:27;97683.72;;;5.93;100.00
15674;BME280;7937;48.090;16.212;2022-11-15T08:59:48;97679.50;;;5.90;100.00
15674;BME280;7937;48.090;16.212;2022-11-15T09:03:08;97677.81;;;5.89;100.00
15674;BME280;7937;48.090;16.212;2022-11-15T09:06:30;97681.81;;;5.81;100.00
15674;BME280;7937;48.090;16.212;2022-11-15T09:09:50;97667.88;;;5.80;100.00
15674;BME280;7937;48.090;16.212;2022-11-15T09:13:11;97663.97;;;5.87;100.00
15674;BME280;7937;48.090;16.212;2022-11-15T09:16:31;97655.91;;;5.90;100.00
15674;BME280;7937;48.090;16.212;2022-11-15T09:19:52;97657.03;;;5.86;100.00
15674;BME280;7937;48.090;16.212;2022-11-15T09:23:12;97660.69;;;5.84;100.00
15674;BME280;7937;48.090;16.212;2022-11-15T09:26:33;97659.00;;;5.83;100.00
15674;BME280;7937;48.090;16.212;2022-11-15T09:29:53;97660.69;;;5.84;100.00
15674;BME280;7937;48.090;16.212;2022-11-15T09:33:14;97657.97;;;5.85;100.00
15674;BME280;7937;48.090;16.212;2022-11-15T09:36:34;97645.91;;;5.83;100.00
15674;BME280;7937;48.090;16.212;2022-11-15T09:39:55;97651.78;;;5.86;100.00
15674;BME280;7937;48.090;16.212;2022-11-15T09:50:09;97637.22;;;5.97;100.00
15674;BME280;7937;48.090;16.212;2022-11-15T09:53:14;97623.91;;;6.00;100.00
15674;BME280;7937;48.090;16.212;2022-11-15T09:56:21;97616.81;;;6.02;100.00
15674;BME280;7937;48.090;16.212;2022-11-15T09:59:55;97623.72;;;6.03;100.00
15674;BME280;7937;48.090;16.212;2022-11-15T10:03:31;97611.66;;;6.00;100.00
15674;BME280;7937;48.090;16.212;2022-11-15T10:06:39;97612.31;;;6.04;100.00
15674;BME280;7937;48.090;16.212;2022-11-15T10:10:02;97608.47;;;6.09;100.00
15674;BME280;7937;48.090;16.212;2022-11-15T10:20:23;97588.03;;;6.28;100.00
15674;BME280;7937;48.090;16.212;2022-11-15T10:23:29;97576.81;;;6.26;100.00
15674;BME280;7937;48.090;16.212;2022-11-15T10:26:33;97576.47;;;6.31;100.00
15674;BME280;7937;48.090;16.212;2022-11-15T10:29:35;97573.06;;;6.43;100.00
15674;BME280;7937;48.090;16.212;2022-11-15T10:32:39;97562.41;;;6.46;100.00
15674;BME280;7937;48.090;16.212;2022-11-15T10:35:42;97550.03;;;6.48;100.00
15674;BME280;7937;48.090;16.212;2022-11-15T10:42:26;97560.72;;;6.45;100.00
15674;BME280;7937;48.090;16.212;2022-11-15T10:45:33;97556.59;;;6.41;100.00
15674;BME280;7937;48.090;16.212;2022-11-15T10:48:36;97544.97;;;6.45;100.00
15674;BME280;7937;48.090;16.212;2022-11-15T10:51:46;97540.59;;;6.46;100.00
15674;BME280;7937;48.090;16.212;2022-11-15T10:55:25;97534.31;;;6.48;100.00
15674;BME280;7937;48.090;16.212;2022-11-15T11:01:45;97523.81;;;6.48;100.00
15674;BME280;7937;48.090;16.212;2022-11-15T11:04:51;97523.69;;;6.50;100.00
15674;BME280;7937;48.090;16.212;2022-11-15T11:07:59;97520.97;;;6.51;100.00
15674;BME280;7937;48.090;16.212;2022-11-15T11:11:03;97512.91;;;6.54;100.00
15674;BME280;7937;48.090;16.212;2022-11-15T11:14:13;97520.06;;;6.65;100.00
15674;BME280;7937;48.090;16.212;2022-11-15T11:20:41;97504.00;;;6.70;100.00
15674;BME280;7937;48.090;16.212;2022-11-15T11:24:26;97499.72;;;6.69;100.00
15674;BME280;7937;48.090;16.212;2022-11-15T11:34:54;97489.66;;;6.75;100.00
15674;BME280;7937;48.090;16.212;2022-11-15T11:42:17;97482.75;;;6.87;100.00
15674;BME280;7937;48.090;16.212;2022-11-15T11:49:10;97473.38;;;6.83;100.00
15674;BME280;7937;48.090;16.212;2022-11-15T11:58:41;97454.81;;;6.73;100.00
15674;BME280;7937;48.090;16.212;2022-11-15T12:01:44;97449.69;;;6.72;100.00
15674;BME280;7937;48.090;16.212;2022-11-15T12:04:51;97445.59;;;6.68;100.00
15674;BME280;7937;48.090;16.212;2022-11-15T12:08:04;97433.44;;;6.66;100.00
15674;BME280;7937;48.090;16.212;2022-11-15T12:11:14;97430.72;;;6.68;100.00
15674;BME280;7937;48.090;16.212;2022-11-15T12:17:30;97421.78;;;6.71;100.00
15674;BME280;7937;48.090;16.212;2022-11-15T12:20:37;97418.00;;;6.75;100.00
15674;BME280;7937;48.090;16.212;2022-11-15T12:23:46;97414.00;;;6.82;100.00
15674;BME280;7937;48.090;16.212;2022-11-15T12:26:54;97412.31;;;6.81;100.00
15674;BME280;7937;48.090;16.212;2022-11-15T12:30:01;97411.38;;;6.82;100.00
15674;BME280;7937;48.090;16.212;2022-11-15T12:33:04;97404.44;;;6.81;100.00
15674;BME280;7937;48.090;16.212;2022-11-15T12:41:11;97399.75;;;6.86;100.00
15674;BME280;7937;48.090;16.212;2022-11-15T12:46:22;97388.31;;;6.87;100.00
15674;BME280;7937;48.090;16.212;2022-11-15T12:52:30;97390.41;;;6.82;100.00
15674;BME280;7937;48.090;16.212;2022-11-15T12:55:32;97378.03;;;6.84;100.00
15674;BME280;7937;48.090;16.212;2022-11-15T12:58:55;97365.84;;;6.83;100.00
15674;BME280;7937;48.090;16.212;2022-11-15T13:01:59;97365.00;;;6.82;100.00
15674;BME280;7937;48.090;16.212;2022-11-15T13:08:39;97359.78;;;6.82;100.00
15674;BME280;7937;48.090;16.212;2022-11-15T13:11:46;97354.53;;;6.82;100.00
15674;BME280;7937;48.090;16.212;2022-11-15T13:14:56;97349.38;;;6.81;100.00
15674;BME280;7937;48.090;16.212;2022-11-15T13:17:58;97352.34;;;6.76;100.00
15674;BME280;7937;48.090;16.212;2022-11-15T13:21:02;97344.56;;;6.75;100.00
15674;BME280;7937;48.090;16.212;2022-11-15T13:24:25;97348.25;;;6.72;100.00
15674;BME280;7937;48.090;16.212;2022-11-15T13:27:27;97344.56;;;6.75;100.00
15674;BME280;7937;48.090;16.212;2022-11-15T13:30:31;97344.69;;;6.73;100.00
15674;BME280;7937;48.090;16.212;2022-11-15T13:33:35;97353.38;;;6.74;100.00
15674;BME280;7937;48.090;16.212;2022-11-15T13:36:38;97349.81;;;6.75;100.00
15674;BME280;7937;48.090;16.212;2022-11-15T13:39:40;97343.63;;;6.76;100.00
15674;BME280;7937;48.090;16.212;2022-11-15T13:42:42;97335.66;;;6.77;100.00
15674;BME280;7937;48.090;16.212;2022-11-15T13:46:12;97329.34;;;6.80;100.00
15674;BME280;7937;48.090;16.212;2022-11-15T13:49:14;97325.88;;;6.79;100.00
15674;BME280;7937;48.090;16.212;2022-11-15T13:52:16;97325.28;;;6.76;100.00
15674;BME280;7937;48.090;16.212;2022-11-15T13:55:21;97323.50;;;6.76;100.00
15674;BME280;7937;48.090;16.212;2022-11-15T13:58:24;97312.56;;;6.70;100.00
15674;BME280;7937;48.090;16.212;2022-11-15T14:01:28;97305.69;;;6.69;100.00
15674;BME280;7937;48.090;16.212;2022-11-15T14:04:38;97296.75;;;6.71;100.00
15674;BME280;7937;48.090;16.212;2022-11-15T14:07:55;97297.47;;;6.73;100.00
15674;BME280;7937;48.090;16.212;2022-11-15T14:11:19;97291.91;;;6.78;100.00
15674;BME280;7937;48.090;16.212;2022-11-15T14:14:23;97304.19;;;6.77;100.00
15674;BME280;7937;48.090;16.212;2022-11-15T14:20:36;97306.28;;;6.72;100.00
15674;BME280;7937;48.090;16.212;2022-11-15T14:23:39;97307.47;;;6.68;100.00
15674;BME280;7937;48.090;16.212;2022-11-15T14:26:42;97303.47;;;6.62;100.00
15674;BME280;7937;48.090;16.212;2022-11-15T14:29:44;97309.78;;;6.60;100.00
15674;BME280;7937;48.090;16.212;2022-11-15T14:32:48;97300.34;;;6.57;100.00
15674;BME280;7937;48.090;16.212;2022-11-15T14:35:52;97288.94;;;6.58;100.00
15674;BME280;7937;48.090;16.212;2022-11-15T14:38:54;97288.78;;;6.60;100.00
15674;BME280;7937;48.090;16.212;2022-11-15T14:41:56;97286.16;;;6.60;100.00
15674;BME280;7937;48.090;16.212;2022-11-15T14:44:58;97287.84;;;6.61;100.00
15674;BME280;7937;48.090;16.212;2022-11-15T14:48:00;97285.97;;;6.63;100.00
15674;BME280;7937;48.090;16.212;2022-11-15T14:51:03;97280.72;;;6.63;100.00
15674;BME280;7937;48.090;16.212;2022-11-15T14:54:05;97278.94;;;6.63;100.00
15674;BME280;7937;48.090;16.212;2022-11-15T14:57:07;97273.69;;;6.63;100.00
15674;BME280;7937;48.090;16.212;2022-11-15T15:00:09;97273.69;;;6.63;100.00
15674;BME280;7937;48.090;16.212;2022-11-15T15:03:14;97265.84;;;6.63;100.00
15674;BME280;7937;48.090;16.212;2022-11-15T15:06:16;97270.97;;;6.65;100.00
15674;BME280;7937;48.090;16.212;2022-11-15T15:09:19;97271.72;;;6.67;100.00
15674;BME280;7937;48.090;16.212;2022-11-15T15:12:22;97263.09;;;6.65;100.00
15674;BME280;7937;48.090;16.212;2022-11-15T15:15:29;97259.53;;;6.66;100.00
15674;BME280;7937;48.090;16.212;2022-11-15T15:18:33;97262.06;;;6.68;100.00
15674;BME280;7937;48.090;16.212;2022-11-15T15:21:35;97260.28;;;6.68;100.00
15674;BME280;7937;48.090;16.212;2022-11-15T15:24:38;97256.81;;;6.68;100.00
15674;BME280;7937;48.090;16.212;2022-11-15T15:27:40;97254.19;;;6.68;100.00
15674;BME280;7937;48.090;16.212;2022-11-15T15:30:42;97249.06;;;6.66;100.00
15674;BME280;7937;48.090;16.212;2022-11-15T15:33:44;97250.72;;;6.67;100.00
15674;BME280;7937;48.090;16.212;2022-11-15T15:36:47;97251.56;;;6.68;100.00
15674;BME280;7937;48.090;16.212;2022-11-15T15:39:50;97255.03;;;6.68;100.00
15674;BME280;7937;48.090;16.212;2022-11-15T15:42:53;97253.25;;;6.69;100.00
15674;BME280;7937;48.090;16.212;2022-11-15T15:45:55;97247.03;;;6.70;100.00
15674;BME280;7937;48.090;16.212;2022-11-15T15:48:57;97238.22;;;6.71;100.00
15674;BME280;7937;48.090;16.212;2022-11-15T15:51:59;97243.47;;;6.71;100.00
15674;BME280;7937;48.090;16.212;2022-11-15T15:55:01;97243.34;;;6.72;100.00
15674;BME280;7937;48.090;16.212;2022-11-15T15:58:04;97243.34;;;6.72;100.00
15674;BME280;7937;48.090;16.212;2022-11-15T16:01:06;97232.75;;;6.74;100.00
15674;BME280;7937;48.090;16.212;2022-11-15T16:04:09;97232.75;;;6.74;100.00
15674;BME280;7937;48.090;16.212;2022-11-15T16:07:21;97220.38;;;6.76;100.00
15674;BME280;7937;48.090;16.212;2022-11-15T16:10:31;97210.84;;;6.75;100.00
15674;BME280;7937;48.090;16.212;2022-11-15T16:13:33;97215.97;;;6.76;100.00
15674;BME280;7937;48.090;16.212;2022-11-15T16:16:36;97213.34;;;6.76;100.00
15674;BME280;7937;48.090;16.212;2022-11-15T16:19:38;97209.78;;;6.77;100.00
15674;BME280;7937;48.090;16.212;2022-11-15T16:22:40;97203.59;;;6.78;100.00
15674;BME280;7937;48.090;16.212;2022-11-15T16:25:54;97205.38;;;6.78;100.00
15674;BME280;7937;48.090;16.212;2022-11-15T16:28:59;97204.53;;;6.77;100.00
15674;BME280;7937;48.090;16.212;2022-11-15T16:32:01;97208.09;;;6.76;100.00
15674;BME280;7937;48.090;16.212;2022-11-15T16:35:04;97210.63;;;6.78;100.00
15674;BME280;7937;48.090;16.212;2022-11-15T16:38:13;97207.06;;;6.79;100.00
15674;BME280;7937;48.090;16.212;2022-11-15T16:41:17;97210.63;;;6.78;100.00
15674;BME280;7937;48.090;16.212;2022-11-15T16:44:20;97203.69;;;6.77;100.00
15674;BME280;7937;48.090;16.212;2022-11-15T16:47:23;97208.94;;;6.77;100.00
15674;BME280;7937;48.090;16.212;2022-11-15T16:50:29;97208.94;;;6.77;100.00
15674;BME280;7937;48.090;16.212;2022-11-15T16:53:32;97208.94;;;6.77;100.00
15674;BME280;7937;48.090;16.212;2022-11-15T16:56:34;97198.56;;;6.75;100.00
15674;BME280;7937;48.090;16.212;2022-11-15T16:59:36;97205.59;;;6.75;100.00
15674;BME280;7937;48.090;16.212;2022-11-15T17:02:39;97206.53;;;6.74;100.00
15674;BME280;7937;48.090;16.212;2022-11-15T17:05:41;97204.75;;;6.74;100.00
15674;BME280;7937;48.090;16.212;2022-11-15T17:08:44;97204.75;;;6.74;100.00
15674;BME280;7937;48.090;16.212;2022-11-15T17:11:47;97196.88;;;6.74;100.00
15674;BME280;7937;48.090;16.212;2022-11-15T17:14:49;97193.31;;;6.75;100.00
15674;BME280;7937;48.090;16.212;2022-11-15T17:17:53;97191.53;;;6.76;100.00
15674;BME280;7937;48.090;16.212;2022-11-15T17:20:55;97187.25;;;6.75;100.00
15674;BME280;7937;48.090;16.212;2022-11-15T17:23:58;97190.06;;;6.72;100.00
15674;BME280;7937;48.090;16.212;2022-11-15T17:27:00;97186.41;;;6.74;100.00
15674;BME280;7937;48.090;16.212;2022-11-15T17:30:04;97181.88;;;6.76;100.00
15674;BME280;7937;48.090;16.212;2022-11-15T17:33:07;97188.06;;;6.75;100.00
15674;BME280;7937;48.090;16.212;2022-11-15T17:36:11;97184.50;;;6.76;100.00
15674;BME280;7937;48.090;16.212;2022-11-15T17:39:13;97181.03;;;6.76;100.00
15674;BME280;7937;48.090;16.212;2022-11-15T17:42:15;97171.41;;;6.76;100.00
15674;BME280;7937;48.090;16.212;2022-11-15T17:45:18;97166.03;;;6.78;100.00
15674;BME280;7937;48.090;16.212;2022-11-15T17:48:20;97160.66;;;6.79;100.00
15674;BME280;7937;48.090;16.212;2022-11-15T17:51:23;97159.13;;;6.77;100.00
15674;BME280;7937;48.090;16.212;2022-11-15T17:54:26;97162.69;;;6.76;100.00
15674;BME280;7937;48.090;16.212;2022-11-15T17:57:32;97155.75;;;6.75;100.00
15674;BME280;7937;48.090;16.212;2022-11-15T18:00:37;97155.75;;;6.75;100.00
15674;BME280;7937;48.090;16.212;2022-11-15T18:03:40;97149.56;;;6.76;100.00
15674;BME280;7937;48.090;16.212;2022-11-15T18:06:42;97143.38;;;6.77;100.00
15674;BME280;7937;48.090;16.212;2022-11-15T18:09:45;97148.63;;;6.77;100.00
15674;BME280;7937;48.090;16.212;2022-11-15T18:12:47;97147.69;;;6.78;100.00
15674;BME280;7937;48.090;16.212;2022-11-15T18:15:53;97143.50;;;6.75;100.00
15674;BME280;7937;48.090;16.212;2022-11-15T18:18:59;97134.69;;;6.76;100.00
15674;BME280;7937;48.090;16.212;2022-11-15T18:22:02;97138.16;;;6.77;100.00
15674;BME280;7937;48.090;16.212;2022-11-15T18:25:07;97140.75;;;6.77;100.00
15674;BME280;7937;48.090;16.212;2022-11-15T18:28:10;97137.31;;;6.76;100.00
15674;BME280;7937;48.090;16.212;2022-11-15T18:31:20;97128.59;;;6.76;100.00
15674;BME280;7937;48.090;16.212;2022-11-15T18:34:25;97126.81;;;6.76;100.00
15674;BME280;7937;48.090;16.212;2022-11-15T18:37:33;97128.59;;;6.76;100.00